createdAt,value
2019-03-29T00:00:23.110Z,43.87
2019-03-29T00:02:53.031Z,44.47
2019-03-29T00:05:21.440Z,44.53
2019-03-29T00:07:49.811Z,57.20
2019-03-29T00:10:18.356Z,42.10
2019-03-29T00:12:46.738Z,58.67
2019-03-29T00:15:15.067Z,43.67
2019-03-29T00:17:44.148Z,48.77
2019-03-29T00:20:12.591Z,49.30
2019-03-29T00:22:40.929Z,51.57
2019-03-29T00:25:09.448Z,44.37
2019-03-29T00:27:37.684Z,53.27
2019-03-29T00:30:06.357Z,57.70
2019-03-29T00:32:34.602Z,49.87
2019-03-29T00:35:02.984Z,48.83
2019-03-29T00:37:32.740Z,55.43
2019-03-29T00:40:00.967Z,44.03
2019-03-29T00:42:29.498Z,62.43
2019-03-29T00:44:57.811Z,41.47
2019-03-29T00:47:26.222Z,37.10
2019-03-29T00:49:54.663Z,38.47
2019-03-29T00:52:23.063Z,51.50
2019-03-29T00:54:51.599Z,41.33
2019-03-29T00:57:19.863Z,45.43
2019-03-29T00:59:48.248Z,48.47
2019-03-29T01:02:16.674Z,48.80
2019-03-29T01:04:45.119Z,42.93
2019-03-29T01:07:13.588Z,51.50
2019-03-29T01:09:41.991Z,45.97
2019-03-29T01:12:10.444Z,46.83
2019-03-29T01:14:38.832Z,51.07
2019-03-29T01:17:08.072Z,46.07
2019-03-29T01:19:36.329Z,46.67
2019-03-29T01:22:05.245Z,49.13
2019-03-29T01:24:34.470Z,39.00
2019-03-29T01:27:02.883Z,48.93
2019-03-29T01:29:31.284Z,44.47
2019-03-29T01:31:59.711Z,40.70
2019-03-29T01:34:28.271Z,50.10
2019-03-29T01:36:57.776Z,53.13
2019-03-29T01:39:26.151Z,44.03
2019-03-29T01:41:54.983Z,47.23
2019-03-29T01:44:23.315Z,46.40
2019-03-29T01:46:51.543Z,47.00
2019-03-29T01:49:19.791Z,42.90
2019-03-29T01:51:48.133Z,40.50
2019-03-29T01:54:16.402Z,47.53
2019-03-29T01:56:44.781Z,39.17
2019-03-29T01:59:13.211Z,39.07
2019-03-29T02:01:41.520Z,44.30
2019-03-29T02:04:09.984Z,48.33
2019-03-29T02:06:38.400Z,49.43
2019-03-29T02:09:07.258Z,45.10
2019-03-29T02:11:35.570Z,41.23
2019-03-29T02:14:04.131Z,47.20
2019-03-29T02:16:32.423Z,52.33
2019-03-29T02:19:00.803Z,48.47
2019-03-29T02:21:29.771Z,40.93
2019-03-29T02:23:58.199Z,48.53
2019-03-29T02:26:26.517Z,49.77
2019-03-29T02:28:54.738Z,44.10
2019-03-29T02:31:25.782Z,53.83
2019-03-29T02:33:53.345Z,52.73
2019-03-29T02:36:21.784Z,39.90
2019-03-29T02:38:55.471Z,49.83
2019-03-29T02:41:19.967Z,42.13
2019-03-29T02:43:48.350Z,49.63
2019-03-29T02:46:16.708Z,47.30
2019-03-29T02:48:45.153Z,44.70
2019-03-29T02:51:13.612Z,46.50
2019-03-29T02:53:41.986Z,48.40
2019-03-29T02:56:10.292Z,40.37
2019-03-29T02:58:38.560Z,40.43
2019-03-29T03:01:06.903Z,43.70
2019-03-29T03:03:35.225Z,38.30
2019-03-29T03:06:03.631Z,49.43
2019-03-29T03:08:33.166Z,33.80
2019-03-29T03:11:01.672Z,43.67
2019-03-29T03:13:30.112Z,31.83
2019-03-29T03:15:58.513Z,42.10
2019-03-29T03:18:26.914Z,46.03
2019-03-29T03:20:55.126Z,38.53
2019-03-29T03:23:23.482Z,32.33
2019-03-29T03:25:51.848Z,38.73
2019-03-29T03:28:20.286Z,40.20
2019-03-29T03:30:48.811Z,39.50
2019-03-29T03:33:17.260Z,34.00
2019-03-29T03:35:45.644Z,43.43
2019-03-29T03:38:13.965Z,45.40
2019-03-29T03:40:42.273Z,36.27
2019-03-29T03:43:10.548Z,45.70
2019-03-29T03:45:38.976Z,33.60
2019-03-29T03:48:07.364Z,44.30
2019-03-29T03:50:37.201Z,39.37
2019-03-29T03:53:05.557Z,38.87
2019-03-29T03:55:33.939Z,38.70
2019-03-29T03:58:03.671Z,42.73
2019-03-29T04:00:33.801Z,47.87
2019-03-29T04:03:02.152Z,45.87
2019-03-29T04:05:30.540Z,44.43
2019-03-29T04:07:59.029Z,45.13
2019-03-29T04:10:27.397Z,52.83
2019-03-29T04:12:55.883Z,43.53
2019-03-29T04:15:24.157Z,41.73
2019-03-29T04:17:52.540Z,48.23
2019-03-29T04:20:20.890Z,40.37
2019-03-29T04:22:49.212Z,43.17
2019-03-29T04:25:17.560Z,44.97
2019-03-29T04:27:45.903Z,44.03
2019-03-29T04:30:14.336Z,43.40
2019-03-29T04:32:42.815Z,41.13
2019-03-29T04:35:11.140Z,35.77
2019-03-29T04:37:39.665Z,40.03
2019-03-29T04:40:09.003Z,52.87
2019-03-29T04:42:37.477Z,47.97
2019-03-29T04:45:06.034Z,47.90
2019-03-29T04:47:34.556Z,39.60
2019-03-29T04:50:03.320Z,48.83
2019-03-29T04:52:31.659Z,49.83
2019-03-29T04:55:01.201Z,51.37
2019-03-29T04:57:29.483Z,54.80
2019-03-29T04:59:57.780Z,50.97
2019-03-29T05:02:27.329Z,54.87
2019-03-29T05:04:55.571Z,48.23
2019-03-29T05:07:23.857Z,43.43
2019-03-29T05:09:52.208Z,44.27
2019-03-29T05:12:20.589Z,39.13
2019-03-29T05:14:49.049Z,49.77
2019-03-29T05:17:17.482Z,55.37
2019-03-29T05:19:45.846Z,39.90
2019-03-29T05:22:14.186Z,38.80
2019-03-29T05:24:42.507Z,46.70
2019-03-29T05:27:11.892Z,47.27
2019-03-29T05:29:40.227Z,44.53
2019-03-29T05:32:08.604Z,42.67
2019-03-29T05:34:36.823Z,42.23
2019-03-29T05:37:05.347Z,45.53
2019-03-29T05:39:33.704Z,47.23
2019-03-29T05:42:02.100Z,43.73
2019-03-29T05:44:30.491Z,42.87
2019-03-29T05:46:58.903Z,45.70
2019-03-29T05:49:27.341Z,46.43
2019-03-29T05:51:55.733Z,45.87
2019-03-29T05:54:24.154Z,44.77
2019-03-29T05:56:52.616Z,42.07
2019-03-29T05:59:21.111Z,48.60
2019-03-29T06:01:49.511Z,44.90
2019-03-29T06:04:18.079Z,53.20
2019-03-29T06:06:46.403Z,42.43
2019-03-29T06:09:14.925Z,45.00
2019-03-29T06:11:43.309Z,50.17
2019-03-29T06:14:11.800Z,34.40
2019-03-29T06:16:40.079Z,40.17
2019-03-29T06:19:08.263Z,40.63
2019-03-29T06:21:36.725Z,38.53
2019-03-29T06:24:05.203Z,36.70
2019-03-29T06:26:33.633Z,34.50
2019-03-29T06:29:02.083Z,35.20
2019-03-29T06:31:30.472Z,30.57
2019-03-29T06:33:59.947Z,32.40
2019-03-29T06:36:29.405Z,35.43
2019-03-29T06:38:58.739Z,43.17
2019-03-29T06:41:27.087Z,41.80
2019-03-29T06:43:55.326Z,31.63
2019-03-29T06:46:23.783Z,34.33
2019-03-29T06:48:52.276Z,29.20
2019-03-29T06:51:20.673Z,30.37
2019-03-29T06:53:52.376Z,33.77
2019-03-29T06:56:19.048Z,35.70
2019-03-29T06:58:47.360Z,40.67
2019-03-29T07:01:15.841Z,35.10
2019-03-29T07:03:44.333Z,44.03
2019-03-29T07:06:12.743Z,32.07
2019-03-29T07:08:41.159Z,34.43
2019-03-29T07:11:17.102Z,33.43
2019-03-29T07:13:39.594Z,34.73
2019-03-29T07:16:07.894Z,40.27
2019-03-29T07:18:36.309Z,38.13
2019-03-29T07:21:04.810Z,36.83
2019-03-29T07:23:33.164Z,32.07
2019-03-29T07:26:01.593Z,38.20
2019-03-29T07:28:29.979Z,37.20
2019-03-29T07:30:58.408Z,30.53
2019-03-29T07:33:26.787Z,30.87
2019-03-29T07:35:55.071Z,32.50
2019-03-29T07:38:23.464Z,32.70
2019-03-29T07:40:51.956Z,31.03
2019-03-29T07:43:24.018Z,24.03
2019-03-29T07:45:51.386Z,29.47
2019-03-29T07:48:19.716Z,24.50
2019-03-29T07:50:49.181Z,29.63
2019-03-29T07:53:17.583Z,27.90
2019-03-29T07:55:46.004Z,26.77
2019-03-29T07:58:14.379Z,23.03
2019-03-29T08:00:42.754Z,15.77
2019-03-29T08:03:11.086Z,20.40
2019-03-29T08:05:39.544Z,25.37
2019-03-29T08:08:07.893Z,15.60
2019-03-29T08:10:36.162Z,19.70
2019-03-29T08:13:04.483Z,20.33
2019-03-29T08:15:32.906Z,19.40
2019-03-29T08:18:01.892Z,23.33
2019-03-29T08:20:43.253Z,27.10
2019-03-29T08:23:00.577Z,23.13
2019-03-29T08:25:28.905Z,25.20
2019-03-29T08:27:57.226Z,29.63
2019-03-29T08:30:25.475Z,37.80
2019-03-29T08:32:53.825Z,24.90
2019-03-29T08:35:22.320Z,29.50
2019-03-29T08:37:50.725Z,31.00
2019-03-29T08:40:19.173Z,26.23
2019-03-29T08:42:49.799Z,23.47
2019-03-29T08:48:08.544Z,21.73
2019-03-29T08:50:37.027Z,24.63
2019-03-29T08:53:05.485Z,15.47
2019-03-29T08:55:45.031Z,19.00
2019-03-29T08:58:05.001Z,16.13
2019-03-29T09:00:33.558Z,17.90
2019-03-29T09:03:02.448Z,19.17
2019-03-29T09:05:30.795Z,17.73
2019-03-29T09:07:59.185Z,18.83
2019-03-29T09:10:30.369Z,17.40
2019-03-29T09:12:58.726Z,17.03
2019-03-29T09:15:27.265Z,18.03
2019-03-29T09:17:59.652Z,20.10
2019-03-29T09:20:27.468Z,17.73
2019-03-29T09:22:55.953Z,18.03
2019-03-29T09:25:24.265Z,19.10
2019-03-29T09:27:52.685Z,22.63
2019-03-29T09:30:21.179Z,19.37
2019-03-29T09:32:51.295Z,16.30
2019-03-29T09:35:19.605Z,18.60
2019-03-29T09:37:47.940Z,17.67
2019-03-29T09:40:16.434Z,17.17
2019-03-29T09:42:45.884Z,15.97
2019-03-29T09:45:14.356Z,16.67
2019-03-29T09:47:42.715Z,16.20
2019-03-29T09:50:11.186Z,13.30
2019-03-29T09:52:39.510Z,15.73
2019-03-29T09:55:08.074Z,15.63
2019-03-29T09:57:37.897Z,19.00
2019-03-29T10:00:17.974Z,20.73
2019-03-29T10:02:37.027Z,21.33
2019-03-29T10:05:05.589Z,14.53
2019-03-29T10:07:33.978Z,14.20
2019-03-29T10:10:02.343Z,18.27
2019-03-29T10:12:42.639Z,10.40
2019-03-29T10:15:01.947Z,12.60
2019-03-29T10:17:30.257Z,15.67
2019-03-29T10:19:58.599Z,13.70
2019-03-29T10:22:26.912Z,12.13
2019-03-29T10:24:55.204Z,14.23
2019-03-29T10:27:23.535Z,14.13
2019-03-29T10:29:51.934Z,12.57
2019-03-29T10:32:21.420Z,22.17
2019-03-29T10:34:49.704Z,10.30
2019-03-29T10:37:17.972Z,14.90
2019-03-29T10:39:47.293Z,13.23
2019-03-29T10:42:15.570Z,11.57
2019-03-29T10:44:44.008Z,15.00
2019-03-29T10:47:12.304Z,9.50
2019-03-29T10:49:40.651Z,8.50
2019-03-29T10:52:08.944Z,14.00
2019-03-29T10:54:37.451Z,10.80
2019-03-29T10:57:05.753Z,15.60
2019-03-29T10:59:34.402Z,12.80
2019-03-29T11:02:02.847Z,12.23
2019-03-29T11:04:32.053Z,10.30
2019-03-29T11:07:00.771Z,10.20
2019-03-29T11:09:29.158Z,11.73
2019-03-29T11:11:57.539Z,13.00
2019-03-29T11:14:25.967Z,13.50
2019-03-29T11:16:54.291Z,11.83
2019-03-29T11:19:22.543Z,10.60
2019-03-29T11:21:51.079Z,9.67
2019-03-29T11:24:19.424Z,9.80
2019-03-29T11:26:47.810Z,11.00
2019-03-29T11:29:16.124Z,13.17
2019-03-29T11:31:44.510Z,9.53
2019-03-29T11:34:12.867Z,16.57
2019-03-29T11:36:41.219Z,14.83
2019-03-29T11:39:09.722Z,10.33
2019-03-29T11:41:38.110Z,11.53
2019-03-29T11:44:06.561Z,10.93
2019-03-29T11:46:34.987Z,11.30
2019-03-29T11:49:03.446Z,9.37
2019-03-29T11:51:31.811Z,9.73
2019-03-29T11:54:00.147Z,9.23
2019-03-29T11:56:29.042Z,10.60
2019-03-29T11:58:57.406Z,9.47
2019-03-29T12:01:25.959Z,9.23
2019-03-29T12:03:54.319Z,13.90
2019-03-29T12:06:22.799Z,11.43
2019-03-29T12:08:51.299Z,10.00
2019-03-29T12:11:19.570Z,11.33
2019-03-29T12:13:48.064Z,9.93
2019-03-29T12:16:16.426Z,9.30
2019-03-29T12:18:44.859Z,12.70
2019-03-29T12:21:13.219Z,11.13
2019-03-29T12:23:41.487Z,9.40
2019-03-29T12:26:09.843Z,16.67
2019-03-29T12:28:38.340Z,13.20
2019-03-29T12:31:07.639Z,13.63
2019-03-29T12:33:35.895Z,14.27
2019-03-29T12:36:04.360Z,13.10
2019-03-29T12:38:32.799Z,10.23
2019-03-29T12:41:01.261Z,12.30
2019-03-29T12:43:29.592Z,10.93
2019-03-29T12:45:58.020Z,9.73
2019-03-29T12:48:26.504Z,10.17
2019-03-29T12:50:54.898Z,9.17
2019-03-29T12:53:23.459Z,8.20
2019-03-29T12:55:51.840Z,8.63
2019-03-29T12:58:20.248Z,12.20
2019-03-29T13:00:48.744Z,10.40
2019-03-29T13:03:17.103Z,13.37
2019-03-29T13:05:45.440Z,10.27
2019-03-29T13:08:13.940Z,13.37
2019-03-29T13:10:42.762Z,10.87
2019-03-29T13:13:12.428Z,15.60
2019-03-29T13:15:40.846Z,11.77
2019-03-29T13:18:09.251Z,10.63
2019-03-29T13:20:37.733Z,9.83
2019-03-29T13:23:06.078Z,12.67
2019-03-29T13:25:34.450Z,13.13
2019-03-29T13:28:02.883Z,13.60
2019-03-29T13:30:31.287Z,10.87
2019-03-29T13:32:59.667Z,13.63
2019-03-29T13:35:27.918Z,12.77
2019-03-29T13:37:56.275Z,10.87
2019-03-29T13:40:24.723Z,12.10
2019-03-29T13:42:53.003Z,9.30
2019-03-29T13:45:21.330Z,12.53
2019-03-29T13:47:49.633Z,11.83
2019-03-29T13:50:18.076Z,17.40
2019-03-29T13:52:46.430Z,12.77
2019-03-29T13:55:14.818Z,11.73
2019-03-29T13:57:43.168Z,13.70
2019-03-29T14:00:12.219Z,14.50
2019-03-29T14:02:40.633Z,9.57
2019-03-29T14:05:09.130Z,8.23
2019-03-29T14:07:37.501Z,8.57
2019-03-29T14:10:06.887Z,8.47
2019-03-29T14:12:35.275Z,10.27
2019-03-29T14:15:04.346Z,9.90
2019-03-29T14:17:32.920Z,9.33
2019-03-29T14:20:01.344Z,10.07
2019-03-29T14:22:30.802Z,11.60
2019-03-29T14:24:59.205Z,10.07
2019-03-29T14:27:27.592Z,12.97
2019-03-29T14:30:04.369Z,7.60
2019-03-29T14:32:25.983Z,9.33
2019-03-29T14:34:54.299Z,12.43
2019-03-29T14:37:22.663Z,12.83
2019-03-29T14:39:50.882Z,12.70
2019-03-29T14:42:19.251Z,12.20
2019-03-29T14:44:52.631Z,14.43
2019-03-29T14:47:17.608Z,11.30
2019-03-29T14:49:45.900Z,13.47
2019-03-29T14:52:14.310Z,10.97
2019-03-29T14:54:42.725Z,12.83
2019-03-29T14:57:11.123Z,13.53
2019-03-29T14:59:39.523Z,12.43
2019-03-29T15:02:07.874Z,12.30
2019-03-29T15:04:42.864Z,15.43
2019-03-29T15:09:06.155Z,14.93
2019-03-29T15:11:34.769Z,17.53
2019-03-29T15:14:03.223Z,15.67
2019-03-29T15:16:31.544Z,16.93
2019-03-29T15:19:16.068Z,13.97
2019-03-29T15:21:46.625Z,15.83
2019-03-29T15:24:15.308Z,24.80
2019-03-29T15:26:43.581Z,22.40
2019-03-29T15:29:13.653Z,14.50
2019-03-29T15:31:55.215Z,16.90
2019-03-29T15:57:05.485Z,22.27
2019-03-29T16:54:44.812Z,18.30
2019-03-29T16:57:39.955Z,14.70
2019-03-29T17:00:28.654Z,15.77
2019-03-29T17:03:31.251Z,16.33
2019-03-29T17:06:19.805Z,13.63
2019-03-29T17:09:19.989Z,16.60
2019-03-29T17:12:05.129Z,18.23
2019-03-29T17:14:54.953Z,23.33
2019-03-29T17:17:41.876Z,15.50
2019-03-29T17:20:22.034Z,18.20
2019-03-29T17:23:08.904Z,14.70
2019-03-29T17:25:53.352Z,14.40
2019-03-29T17:28:35.487Z,11.77
2019-03-29T17:31:37.074Z,13.50
2019-03-29T17:34:20.884Z,16.27
2019-03-29T17:37:05.748Z,17.53
2019-03-29T17:39:53.597Z,15.50
2019-03-29T17:42:39.154Z,15.20
2019-03-29T17:45:33.644Z,16.50
2019-03-29T17:48:27.051Z,18.23
2019-03-29T17:51:15.937Z,21.27
2019-03-29T17:54:06.775Z,19.90
2019-03-29T17:56:53.580Z,23.73
2019-03-29T17:59:50.680Z,19.70
2019-03-29T18:02:43.616Z,18.50
2019-03-29T18:05:29.151Z,20.83
2019-03-29T18:08:15.321Z,26.80
2019-03-29T18:11:06.413Z,11.53
2019-03-29T18:14:20.077Z,18.97
2019-03-29T18:17:10.347Z,22.27
2019-03-29T18:20:01.885Z,19.73
2019-03-29T18:23:02.710Z,18.43
2019-03-29T18:26:11.960Z,17.73
2019-03-29T18:28:59.616Z,20.07
2019-03-29T18:31:49.787Z,19.73
2019-03-29T18:34:42.824Z,16.47
2019-03-29T18:37:23.762Z,21.80
2019-03-29T18:40:26.250Z,15.80
2019-03-29T18:43:11.282Z,19.40
2019-03-29T18:46:21.912Z,17.07
2019-03-29T18:49:09.843Z,15.80
2019-03-29T18:51:56.243Z,19.57
2019-03-29T18:54:41.444Z,15.67
2019-03-29T18:57:38.248Z,20.27
2019-03-29T19:00:39.560Z,16.50
2019-03-29T19:07:03.007Z,16.27
2019-03-29T19:09:42.932Z,15.17
2019-03-29T19:12:23.014Z,19.87
2019-03-29T19:15:19.794Z,13.83
2019-03-29T19:18:12.286Z,20.43
2019-03-29T19:21:04.976Z,18.77
2019-03-29T19:27:17.866Z,22.57
2019-03-29T19:30:05.455Z,17.43
2019-03-29T19:32:40.855Z,16.70
2019-03-29T19:35:18.238Z,19.23
2019-03-29T19:37:58.234Z,14.70
2019-03-29T19:40:41.762Z,18.97
2019-03-29T19:43:27.905Z,16.00
2019-03-29T19:46:05.576Z,17.03
2019-03-29T19:48:42.912Z,23.03
2019-03-29T19:51:13.083Z,20.63
2019-03-29T19:53:41.371Z,21.93
2019-03-29T19:56:10.804Z,18.37
2019-03-29T19:58:39.186Z,16.40
2019-03-29T20:01:07.585Z,19.10
2019-03-29T20:03:35.993Z,16.20
2019-03-29T20:06:04.328Z,15.47
2019-03-29T20:08:32.750Z,23.57
2019-03-29T20:11:01.110Z,21.20
2019-03-29T20:13:29.452Z,21.07
2019-03-29T20:15:57.859Z,18.47
2019-03-29T20:18:26.151Z,21.83
2019-03-29T20:20:54.543Z,18.87
2019-03-29T20:23:23.909Z,17.40
2019-03-29T20:25:52.164Z,18.87
2019-03-29T20:28:20.665Z,19.33
2019-03-29T20:30:49.033Z,15.67
2019-03-29T20:33:17.370Z,17.80
2019-03-29T20:35:45.813Z,18.47
2019-03-29T20:38:14.259Z,17.43
2019-03-29T20:40:43.668Z,22.93
2019-03-29T20:43:11.986Z,21.37
2019-03-29T20:45:40.202Z,23.07
2019-03-29T20:48:08.523Z,19.23
2019-03-29T20:50:36.894Z,21.00
2019-03-29T20:53:05.285Z,22.07
2019-03-29T20:55:33.881Z,22.53
2019-03-29T20:58:02.153Z,20.13
2019-03-29T21:00:30.512Z,17.10
2019-03-29T21:02:58.943Z,17.80
2019-03-29T21:05:27.311Z,21.00
2019-03-29T21:07:55.690Z,20.57
2019-03-29T21:10:24.067Z,18.70
2019-03-29T21:12:52.470Z,21.27
2019-03-29T21:15:20.901Z,23.00
2019-03-29T21:17:56.657Z,20.47
2019-03-29T21:20:19.424Z,20.20
2019-03-29T21:22:47.784Z,20.37
2019-03-29T21:25:16.101Z,23.73
2019-03-29T21:27:44.338Z,17.83
2019-03-29T21:30:14.479Z,18.93
2019-03-29T21:32:42.808Z,22.37
2019-03-29T21:35:11.236Z,21.10
2019-03-29T21:37:39.519Z,18.40
2019-03-29T21:40:12.331Z,17.50
2019-03-29T21:42:45.126Z,20.03
2019-03-29T21:45:27.685Z,20.70
2019-03-29T21:47:43.439Z,17.93
2019-03-29T21:50:11.963Z,21.97
2019-03-29T21:52:40.285Z,17.33
2019-03-29T21:55:08.905Z,19.77
2019-03-29T21:57:37.236Z,16.27
2019-03-29T22:00:07.062Z,16.40
2019-03-29T22:02:36.879Z,18.13
2019-03-29T22:05:05.867Z,15.00
2019-03-29T22:07:34.271Z,17.23
2019-03-29T22:10:02.951Z,20.40
2019-03-29T22:12:31.356Z,17.53
2019-03-29T22:14:59.707Z,20.03
2019-03-29T22:17:27.890Z,24.43
2019-03-29T22:19:56.127Z,21.03
2019-03-29T22:22:24.529Z,16.40
2019-03-29T22:24:52.712Z,24.13
2019-03-29T22:27:21.157Z,22.30
2019-03-29T22:29:49.431Z,25.23
2019-03-29T22:32:17.608Z,25.63
2019-03-29T22:34:45.963Z,20.83
2019-03-29T22:37:14.208Z,23.23
2019-03-29T22:39:42.534Z,27.53
2019-03-29T22:42:10.931Z,31.40
2019-03-29T22:44:39.223Z,23.73
2019-03-29T22:47:07.559Z,23.80
2019-03-29T22:49:35.913Z,20.73
2019-03-29T22:52:04.173Z,24.00
2019-03-29T22:54:32.578Z,31.53
2019-03-29T22:57:00.839Z,24.20
2019-03-29T22:59:30.023Z,21.47
2019-03-29T23:01:58.415Z,27.23
2019-03-29T23:04:26.790Z,25.20
2019-03-29T23:06:55.067Z,22.43
2019-03-29T23:09:23.401Z,29.87
2019-03-29T23:11:53.341Z,27.47
2019-03-29T23:14:21.745Z,26.97
2019-03-29T23:16:50.227Z,26.87
2019-03-29T23:19:18.649Z,28.63
2019-03-29T23:21:47.238Z,23.83
2019-03-29T23:24:15.553Z,25.77
2019-03-29T23:26:43.960Z,32.10
2019-03-29T23:29:12.354Z,25.17
2019-03-29T23:31:40.917Z,25.10
2019-03-29T23:34:09.251Z,29.33
2019-03-29T23:36:37.681Z,23.57
2019-03-29T23:39:06.129Z,28.43
2019-03-29T23:41:34.475Z,27.40
2019-03-29T23:44:02.847Z,30.47
2019-03-29T23:46:31.225Z,30.30
2019-03-29T23:48:59.473Z,29.83
2019-03-29T23:51:28.687Z,22.70
2019-03-29T23:53:57.063Z,29.57
2019-03-29T23:56:25.452Z,23.70
2019-03-29T23:58:53.719Z,22.33
